sensor_id;sensor_type;location;lat;lon;timestamp;temperature;humidity
44517;DHT22;30223;17.182;-96.766;2023-10-09T00:02:11;26.00;62.40
44517;DHT22;30223;17.182;-96.766;2023-10-09T00:04:41;26.00;62.40
44517;DHT22;30223;17.182;-96.766;2023-10-09T00:07:08;26.00;62.40
44517;DHT22;30223;17.182;-96.766;2023-10-09T00:09:35;26.00;62.40
44517;DHT22;30223;17.182;-96.766;2023-10-09T00:12:14;26.00;62.40
44517;DHT22;30223;17.182;-96.766;2023-10-09T00:14:41;26.00;62.50
44517;DHT22;30223;17.182;-96.766;2023-10-09T00:17:16;26.00;62.40
44517;DHT22;30223;17.182;-96.766;2023-10-09T00:19:43;26.00;62.50
44517;DHT22;30223;17.182;-96.766;2023-10-09T00:22:14;25.90;62.40
44517;DHT22;30223;17.182;-96.766;2023-10-09T00:24:52;25.90;62.40
44517;DHT22;30223;17.182;-96.766;2023-10-09T00:27:39;25.90;62.40
44517;DHT22;30223;17.182;-96.766;2023-10-09T00:30:15;25.90;62.40
44517;DHT22;30223;17.182;-96.766;2023-10-09T00:32:45;25.90;62.40
44517;DHT22;30223;17.182;-96.766;2023-10-09T00:35:31;25.90;62.40
44517;DHT22;30223;17.182;-96.766;2023-10-09T00:38:09;25.90;62.40
44517;DHT22;30223;17.182;-96.766;2023-10-09T00:40:47;25.80;62.30
44517;DHT22;30223;17.182;-96.766;2023-10-09T00:43:21;25.80;62.30
44517;DHT22;30223;17.182;-96.766;2023-10-09T00:45:54;25.80;62.30
44517;DHT22;30223;17.182;-96.766;2023-10-09T00:48:20;25.80;62.30
44517;DHT22;30223;17.182;-96.766;2023-10-09T00:51:02;25.80;62.30
44517;DHT22;30223;17.182;-96.766;2023-10-09T00:53:38;25.80;62.30
44517;DHT22;30223;17.182;-96.766;2023-10-09T00:56:05;25.80;62.30
44517;DHT22;30223;17.182;-96.766;2023-10-09T00:58:48;25.80;62.30
44517;DHT22;30223;17.182;-96.766;2023-10-09T01:01:21;25.70;62.20
44517;DHT22;30223;17.182;-96.766;2023-10-09T01:03:53;25.70;62.20
44517;DHT22;30223;17.182;-96.766;2023-10-09T01:06:20;25.70;62.30
44517;DHT22;30223;17.182;-96.766;2023-10-09T01:08:53;25.70;62.20
44517;DHT22;30223;17.182;-96.766;2023-10-09T01:11:34;25.70;62.20
44517;DHT22;30223;17.182;-96.766;2023-10-09T01:14:08;25.60;62.20
44517;DHT22;30223;17.182;-96.766;2023-10-09T01:16:34;25.60;62.20
44517;DHT22;30223;17.182;-96.766;2023-10-09T01:31:33;25.60;61.70
44517;DHT22;30223;17.182;-96.766;2023-10-09T01:34:06;25.60;62.00
44517;DHT22;30223;17.182;-96.766;2023-10-09T01:36:36;25.50;62.00
44517;DHT22;30223;17.182;-96.766;2023-10-09T01:39:05;25.50;62.10
44517;DHT22;30223;17.182;-96.766;2023-10-09T01:41:38;25.50;62.10
44517;DHT22;30223;17.182;-96.766;2023-10-09T01:44:12;25.50;62.10
44517;DHT22;30223;17.182;-96.766;2023-10-09T01:46:42;25.50;62.10
44517;DHT22;30223;17.182;-96.766;2023-10-09T01:49:13;25.40;62.00
44517;DHT22;30223;17.182;-96.766;2023-10-09T01:51:48;25.40;62.10
44517;DHT22;30223;17.182;-96.766;2023-10-09T01:54:17;25.40;62.10
44517;DHT22;30223;17.182;-96.766;2023-10-09T01:57:00;25.40;62.10
44517;DHT22;30223;17.182;-96.766;2023-10-09T01:59:35;25.40;62.10
44517;DHT22;30223;17.182;-96.766;2023-10-09T02:02:05;25.30;62.00
44517;DHT22;30223;17.182;-96.766;2023-10-09T02:05:05;25.30;62.00
44517;DHT22;30223;17.182;-96.766;2023-10-09T02:07:32;25.30;62.10
44517;DHT22;30223;17.182;-96.766;2023-10-09T02:10:07;25.30;62.10
44517;DHT22;30223;17.182;-96.766;2023-10-09T02:12:50;25.30;62.10
44517;DHT22;30223;17.182;-96.766;2023-10-09T02:15:30;25.30;62.10
44517;DHT22;30223;17.182;-96.766;2023-10-09T02:18:21;25.30;62.20
44517;DHT22;30223;17.182;-96.766;2023-10-09T02:23:41;25.20;62.10
44517;DHT22;30223;17.182;-96.766;2023-10-09T02:26:19;25.10;62.10
44517;DHT22;30223;17.182;-96.766;2023-10-09T02:28:54;25.10;62.00
44517;DHT22;30223;17.182;-96.766;2023-10-09T02:31:30;25.10;62.00
44517;DHT22;30223;17.182;-96.766;2023-10-09T02:34:09;25.10;62.10
44517;DHT22;30223;17.182;-96.766;2023-10-09T02:36:37;25.10;62.10
44517;DHT22;30223;17.182;-96.766;2023-10-09T02:39:07;25.10;62.10
44517;DHT22;30223;17.182;-96.766;2023-10-09T02:41:50;25.10;62.10
44517;DHT22;30223;17.182;-96.766;2023-10-09T02:44:17;25.00;62.00
44517;DHT22;30223;17.182;-96.766;2023-10-09T02:46:50;25.10;62.10
44517;DHT22;30223;17.182;-96.766;2023-10-09T02:49:17;25.00;62.00
44517;DHT22;30223;17.182;-96.766;2023-10-09T02:51:44;25.00;62.00
44517;DHT22;30223;17.182;-96.766;2023-10-09T02:54:18;25.00;62.00
44517;DHT22;30223;17.182;-96.766;2023-10-09T02:56:49;25.00;62.10
44517;DHT22;30223;17.182;-96.766;2023-10-09T02:59:41;25.00;62.10
44517;DHT22;30223;17.182;-96.766;2023-10-09T03:02:10;24.90;62.00
44517;DHT22;30223;17.182;-96.766;2023-10-09T03:04:37;25.00;62.00
44517;DHT22;30223;17.182;-96.766;2023-10-09T03:07:05;24.90;62.00
44517;DHT22;30223;17.182;-96.766;2023-10-09T03:09:33;24.90;62.00
44517;DHT22;30223;17.182;-96.766;2023-10-09T03:12:03;24.90;62.00
44517;DHT22;30223;17.182;-96.766;2023-10-09T03:14:32;24.90;62.00
44517;DHT22;30223;17.182;-96.766;2023-10-09T03:17:01;24.90;62.00
44517;DHT22;30223;17.182;-96.766;2023-10-09T03:19:29;24.90;62.00
44517;DHT22;30223;17.182;-96.766;2023-10-09T03:21:56;24.80;62.00
44517;DHT22;30223;17.182;-96.766;2023-10-09T03:24:26;24.80;62.00
44517;DHT22;30223;17.182;-96.766;2023-10-09T03:26:57;24.80;62.00
44517;DHT22;30223;17.182;-96.766;2023-10-09T03:29:24;24.80;62.00
44517;DHT22;30223;17.182;-96.766;2023-10-09T03:31:51;24.80;62.00
44517;DHT22;30223;17.182;-96.766;2023-10-09T03:34:18;24.80;62.00
44517;DHT22;30223;17.182;-96.766;2023-10-09T03:36:48;24.80;62.00
44517;DHT22;30223;17.182;-96.766;2023-10-09T03:39:17;24.80;62.00
44517;DHT22;30223;17.182;-96.766;2023-10-09T03:41:59;24.70;61.90
44517;DHT22;30223;17.182;-96.766;2023-10-09T03:44:26;24.70;61.90
44517;DHT22;30223;17.182;-96.766;2023-10-09T03:46:56;24.70;61.90
44517;DHT22;30223;17.182;-96.766;2023-10-09T03:49:23;24.70;61.90
44517;DHT22;30223;17.182;-96.766;2023-10-09T03:51:52;24.70;61.90
44517;DHT22;30223;17.182;-96.766;2023-10-09T03:54:19;24.70;62.50
44517;DHT22;30223;17.182;-96.766;2023-10-09T03:56:50;24.70;62.00
44517;DHT22;30223;17.182;-96.766;2023-10-09T03:59:17;24.70;62.00
44517;DHT22;30223;17.182;-96.766;2023-10-09T04:01:48;24.70;61.90
44517;DHT22;30223;17.182;-96.766;2023-10-09T04:04:19;24.70;62.00
44517;DHT22;30223;17.182;-96.766;2023-10-09T04:06:49;24.70;61.90
44517;DHT22;30223;17.182;-96.766;2023-10-09T04:09:17;24.60;61.80
44517;DHT22;30223;17.182;-96.766;2023-10-09T04:11:51;24.60;61.90
44517;DHT22;30223;17.182;-96.766;2023-10-09T04:14:53;24.60;61.80
44517;DHT22;30223;17.182;-96.766;2023-10-09T04:17:19;24.60;61.90
44517;DHT22;30223;17.182;-96.766;2023-10-09T04:19:49;24.60;61.80
44517;DHT22;30223;17.182;-96.766;2023-10-09T04:22:40;24.60;61.80
44517;DHT22;30223;17.182;-96.766;2023-10-09T04:25:21;24.60;61.80
44517;DHT22;30223;17.182;-96.766;2023-10-09T04:28:08;24.60;61.80
44517;DHT22;30223;17.182;-96.766;2023-10-09T04:30:39;24.60;61.80
44517;DHT22;30223;17.182;-96.766;2023-10-09T04:33:34;24.60;61.80
44517;DHT22;30223;17.182;-96.766;2023-10-09T04:36:04;24.60;61.80
44517;DHT22;30223;17.182;-96.766;2023-10-09T04:38:55;24.50;61.80
44517;DHT22;30223;17.182;-96.766;2023-10-09T04:41:42;24.60;61.80
44517;DHT22;30223;17.182;-96.766;2023-10-09T04:44:12;24.50;61.80
44517;DHT22;30223;17.182;-96.766;2023-10-09T04:46:55;24.50;61.80
44517;DHT22;30223;17.182;-96.766;2023-10-09T04:49:38;24.50;61.80
44517;DHT22;30223;17.182;-96.766;2023-10-09T04:52:14;24.50;61.80
44517;DHT22;30223;17.182;-96.766;2023-10-09T04:54:59;24.50;61.80
44517;DHT22;30223;17.182;-96.766;2023-10-09T04:57:40;24.50;61.80
44517;DHT22;30223;17.182;-96.766;2023-10-09T05:00:14;24.50;61.80
44517;DHT22;30223;17.182;-96.766;2023-10-09T05:02:58;24.50;61.80
44517;DHT22;30223;17.182;-96.766;2023-10-09T05:05:28;24.50;61.80
44517;DHT22;30223;17.182;-96.766;2023-10-09T05:08:15;24.50;61.90
44517;DHT22;30223;17.182;-96.766;2023-10-09T05:10:45;24.50;61.80
44517;DHT22;30223;17.182;-96.766;2023-10-09T05:13:25;24.50;61.80
44517;DHT22;30223;17.182;-96.766;2023-10-09T05:16:16;24.40;61.80
44517;DHT22;30223;17.182;-96.766;2023-10-09T05:18:54;24.40;61.80
44517;DHT22;30223;17.182;-96.766;2023-10-09T05:21:37;24.40;61.80
44517;DHT22;30223;17.182;-96.766;2023-10-09T05:24:11;24.40;61.80
44517;DHT22;30223;17.182;-96.766;2023-10-09T05:26:39;24.40;61.80
44517;DHT22;30223;17.182;-96.766;2023-10-09T05:29:16;24.40;61.80
44517;DHT22;30223;17.182;-96.766;2023-10-09T05:31:54;24.40;61.80
44517;DHT22;30223;17.182;-96.766;2023-10-09T05:34:41;24.30;61.70
44517;DHT22;30223;17.182;-96.766;2023-10-09T05:37:27;24.40;61.80
44517;DHT22;30223;17.182;-96.766;2023-10-09T05:40:02;24.40;61.80
44517;DHT22;30223;17.182;-96.766;2023-10-09T05:42:29;24.30;61.70
44517;DHT22;30223;17.182;-96.766;2023-10-09T05:45:09;24.30;61.70
44517;DHT22;30223;17.182;-96.766;2023-10-09T05:47:52;24.30;61.80
44517;DHT22;30223;17.182;-96.766;2023-10-09T05:50:37;24.30;61.80
44517;DHT22;30223;17.182;-96.766;2023-10-09T05:53:26;24.30;61.80
44517;DHT22;30223;17.182;-96.766;2023-10-09T05:56:13;24.30;61.70
44517;DHT22;30223;17.182;-96.766;2023-10-09T05:58:57;24.30;61.70
44517;DHT22;30223;17.182;-96.766;2023-10-09T06:01:42;24.30;61.80
44517;DHT22;30223;17.182;-96.766;2023-10-09T06:04:27;24.30;61.80
44517;DHT22;30223;17.182;-96.766;2023-10-09T06:07:11;24.30;61.70
44517;DHT22;30223;17.182;-96.766;2023-10-09T06:09:39;24.20;61.70
44517;DHT22;30223;17.182;-96.766;2023-10-09T06:12:36;24.20;61.70
44517;DHT22;30223;17.182;-96.766;2023-10-09T06:15:09;24.30;61.80
44517;DHT22;30223;17.182;-96.766;2023-10-09T06:17:46;24.20;61.70
44517;DHT22;30223;17.182;-96.766;2023-10-09T06:20:18;24.20;61.70
44517;DHT22;30223;17.182;-96.766;2023-10-09T06:23:03;24.20;61.70
44517;DHT22;30223;17.182;-96.766;2023-10-09T06:25:43;24.20;61.70
44517;DHT22;30223;17.182;-96.766;2023-10-09T06:28:20;24.20;61.70
44517;DHT22;30223;17.182;-96.766;2023-10-09T06:30:59;24.20;61.80
44517;DHT22;30223;17.182;-96.766;2023-10-09T06:33:45;24.20;61.80
44517;DHT22;30223;17.182;-96.766;2023-10-09T06:36:31;24.10;61.70
44517;DHT22;30223;17.182;-96.766;2023-10-09T06:38:58;24.20;61.80
44517;DHT22;30223;17.182;-96.766;2023-10-09T06:41:42;24.10;61.70
44517;DHT22;30223;17.182;-96.766;2023-10-09T06:44:11;24.10;61.80
44517;DHT22;30223;17.182;-96.766;2023-10-09T06:46:57;24.10;61.70
44517;DHT22;30223;17.182;-96.766;2023-10-09T06:49:33;24.10;61.80
44517;DHT22;30223;17.182;-96.766;2023-10-09T06:52:02;24.10;61.80
44517;DHT22;30223;17.182;-96.766;2023-10-09T06:54:41;24.10;61.80
44517;DHT22;30223;17.182;-96.766;2023-10-09T06:57:16;24.10;61.80
44517;DHT22;30223;17.182;-96.766;2023-10-09T07:00:03;24.10;61.80
44517;DHT22;30223;17.182;-96.766;2023-10-09T07:02:59;24.10;61.80
44517;DHT22;30223;17.182;-96.766;2023-10-09T07:05:38;24.00;61.70
44517;DHT22;30223;17.182;-96.766;2023-10-09T07:08:25;24.00;61.80
44517;DHT22;30223;17.182;-96.766;2023-10-09T07:11:04;24.00;61.70
44517;DHT22;30223;17.182;-96.766;2023-10-09T07:13:49;24.00;61.80
44517;DHT22;30223;17.182;-96.766;2023-10-09T07:16:22;24.00;61.80
44517;DHT22;30223;17.182;-96.766;2023-10-09T07:19:05;24.00;61.80
44517;DHT22;30223;17.182;-96.766;2023-10-09T07:21:57;24.00;61.80
44517;DHT22;30223;17.182;-96.766;2023-10-09T07:24:32;24.00;61.80
44517;DHT22;30223;17.182;-96.766;2023-10-09T07:27:10;24.00;61.80
44517;DHT22;30223;17.182;-96.766;2023-10-09T07:29:39;23.90;61.80
44517;DHT22;30223;17.182;-96.766;2023-10-09T07:32:17;23.90;61.70
44517;DHT22;30223;17.182;-96.766;2023-10-09T07:34:48;23.90;61.70
44517;DHT22;30223;17.182;-96.766;2023-10-09T07:37:26;23.90;61.70
44517;DHT22;30223;17.182;-96.766;2023-10-09T07:40:04;23.90;61.80
44517;DHT22;30223;17.182;-96.766;2023-10-09T07:42:34;23.90;61.80
44517;DHT22;30223;17.182;-96.766;2023-10-09T07:45:10;23.90;61.80
44517;DHT22;30223;17.182;-96.766;2023-10-09T07:47:50;23.90;61.80
44517;DHT22;30223;17.182;-96.766;2023-10-09T07:50:25;23.90;61.70
44517;DHT22;30223;17.182;-96.766;2023-10-09T07:53:05;23.90;61.70
44517;DHT22;30223;17.182;-96.766;2023-10-09T07:55:41;23.80;61.70
44517;DHT22;30223;17.182;-96.766;2023-10-09T07:58:15;23.90;61.80
44517;DHT22;30223;17.182;-96.766;2023-10-09T08:00:42;23.80;61.80
44517;DHT22;30223;17.182;-96.766;2023-10-09T08:03:27;23.80;61.80
44517;DHT22;30223;17.182;-96.766;2023-10-09T08:05:58;23.80;61.80
44517;DHT22;30223;17.182;-96.766;2023-10-09T08:08:45;23.80;61.80
44517;DHT22;30223;17.182;-96.766;2023-10-09T08:11:32;23.80;61.80
44517;DHT22;30223;17.182;-96.766;2023-10-09T08:14:10;23.80;61.80
44517;DHT22;30223;17.182;-96.766;2023-10-09T08:16:56;23.80;61.80
44517;DHT22;30223;17.182;-96.766;2023-10-09T08:19:50;23.80;61.80
44517;DHT22;30223;17.182;-96.766;2023-10-09T08:22:30;23.80;61.80
44517;DHT22;30223;17.182;-96.766;2023-10-09T08:24:57;23.80;61.80
44517;DHT22;30223;17.182;-96.766;2023-10-09T08:27:25;23.70;61.80
44517;DHT22;30223;17.182;-96.766;2023-10-09T08:30:03;23.70;61.70
44517;DHT22;30223;17.182;-96.766;2023-10-09T08:32:39;23.70;61.70
44517;DHT22;30223;17.182;-96.766;2023-10-09T08:35:09;23.70;61.80
44517;DHT22;30223;17.182;-96.766;2023-10-09T08:37:57;23.70;62.30
44517;DHT22;30223;17.182;-96.766;2023-10-09T08:40:38;23.70;61.80
44517;DHT22;30223;17.182;-96.766;2023-10-09T08:43:15;23.70;61.70
44517;DHT22;30223;17.182;-96.766;2023-10-09T08:45:56;23.70;61.70
44517;DHT22;30223;17.182;-96.766;2023-10-09T08:48:29;23.70;61.80
44517;DHT22;30223;17.182;-96.766;2023-10-09T08:50:56;23.70;61.80
44517;DHT22;30223;17.182;-96.766;2023-10-09T08:53:24;23.70;61.80
44517;DHT22;30223;17.182;-96.766;2023-10-09T08:55:53;23.70;61.80
44517;DHT22;30223;17.182;-96.766;2023-10-09T08:58:21;23.70;61.80
44517;DHT22;30223;17.182;-96.766;2023-10-09T09:01:02;23.60;61.70
44517;DHT22;30223;17.182;-96.766;2023-10-09T09:03:42;23.60;61.80
44517;DHT22;30223;17.182;-96.766;2023-10-09T09:06:11;23.60;61.80
44517;DHT22;30223;17.182;-96.766;2023-10-09T09:08:40;23.60;61.80
44517;DHT22;30223;17.182;-96.766;2023-10-09T09:13:39;23.60;61.80
44517;DHT22;30223;17.182;-96.766;2023-10-09T09:16:21;23.60;61.80
44517;DHT22;30223;17.182;-96.766;2023-10-09T09:18:53;23.60;61.80
44517;DHT22;30223;17.182;-96.766;2023-10-09T09:21:32;23.60;61.80
44517;DHT22;30223;17.182;-96.766;2023-10-09T09:24:20;23.60;61.80
44517;DHT22;30223;17.182;-96.766;2023-10-09T09:26:47;23.50;61.80
44517;DHT22;30223;17.182;-96.766;2023-10-09T09:32:10;23.50;61.80
44517;DHT22;30223;17.182;-96.766;2023-10-09T09:34:53;23.50;61.80
44517;DHT22;30223;17.182;-96.766;2023-10-09T09:37:33;23.50;61.80
44517;DHT22;30223;17.182;-96.766;2023-10-09T09:40:09;23.50;61.80
44517;DHT22;30223;17.182;-96.766;2023-10-09T09:42:58;23.50;61.70
44517;DHT22;30223;17.182;-96.766;2023-10-09T09:45:36;23.50;61.80
44517;DHT22;30223;17.182;-96.766;2023-10-09T09:48:04;23.50;61.80
44517;DHT22;30223;17.182;-96.766;2023-10-09T09:50:37;23.40;61.70
44517;DHT22;30223;17.182;-96.766;2023-10-09T09:53:14;23.50;61.80
44517;DHT22;30223;17.182;-96.766;2023-10-09T09:55:54;23.40;61.70
44517;DHT22;30223;17.182;-96.766;2023-10-09T09:58:24;23.40;61.70
44517;DHT22;30223;17.182;-96.766;2023-10-09T10:01:03;23.40;61.70
44517;DHT22;30223;17.182;-96.766;2023-10-09T10:04:11;23.40;61.80
44517;DHT22;30223;17.182;-96.766;2023-10-09T10:06:41;23.40;61.80
44517;DHT22;30223;17.182;-96.766;2023-10-09T10:09:10;23.40;61.80
44517;DHT22;30223;17.182;-96.766;2023-10-09T10:11:58;23.40;61.80
44517;DHT22;30223;17.182;-96.766;2023-10-09T10:17:18;23.40;61.80
44517;DHT22;30223;17.182;-96.766;2023-10-09T10:20:07;23.40;61.80
44517;DHT22;30223;17.182;-96.766;2023-10-09T10:22:46;23.40;61.80
44517;DHT22;30223;17.182;-96.766;2023-10-09T10:28:23;23.40;61.80
44517;DHT22;30223;17.182;-96.766;2023-10-09T10:31:12;23.30;61.70
44517;DHT22;30223;17.182;-96.766;2023-10-09T10:34:05;23.30;61.80
44517;DHT22;30223;17.182;-96.766;2023-10-09T10:36:36;23.30;61.80
44517;DHT22;30223;17.182;-96.766;2023-10-09T10:39:08;23.30;61.80
44517;DHT22;30223;17.182;-96.766;2023-10-09T10:41:57;23.30;61.80
44517;DHT22;30223;17.182;-96.766;2023-10-09T10:44:33;23.30;61.80
44517;DHT22;30223;17.182;-96.766;2023-10-09T10:47:00;23.30;61.80
44517;DHT22;30223;17.182;-96.766;2023-10-09T10:49:28;23.30;61.80
44517;DHT22;30223;17.182;-96.766;2023-10-09T10:52:04;23.30;61.80
44517;DHT22;30223;17.182;-96.766;2023-10-09T10:54:43;23.30;61.80
44517;DHT22;30223;17.182;-96.766;2023-10-09T10:57:20;23.30;61.80
44517;DHT22;30223;17.182;-96.766;2023-10-09T10:59:57;23.30;61.80
44517;DHT22;30223;17.182;-96.766;2023-10-09T11:02:43;23.30;61.80
44517;DHT22;30223;17.182;-96.766;2023-10-09T11:05:09;23.30;61.80
44517;DHT22;30223;17.182;-96.766;2023-10-09T11:07:57;23.20;61.80
44517;DHT22;30223;17.182;-96.766;2023-10-09T11:10:23;23.30;61.80
44517;DHT22;30223;17.182;-96.766;2023-10-09T11:12:58;23.20;61.80
44517;DHT22;30223;17.182;-96.766;2023-10-09T11:15:44;23.20;61.80
44517;DHT22;30223;17.182;-96.766;2023-10-09T11:18:15;23.20;61.80
44517;DHT22;30223;17.182;-96.766;2023-10-09T11:20:48;23.20;61.80
44517;DHT22;30223;17.182;-96.766;2023-10-09T11:23:31;23.20;61.80
44517;DHT22;30223;17.182;-96.766;2023-10-09T11:26:02;23.20;61.80
44517;DHT22;30223;17.182;-96.766;2023-10-09T11:29:12;23.20;61.80
44517;DHT22;30223;17.182;-96.766;2023-10-09T11:32:06;23.20;61.80
44517;DHT22;30223;17.182;-96.766;2023-10-09T11:34:35;23.20;61.80
44517;DHT22;30223;17.182;-96.766;2023-10-09T11:37:13;23.20;61.80
44517;DHT22;30223;17.182;-96.766;2023-10-09T11:39:59;23.20;61.80
44517;DHT22;30223;17.182;-96.766;2023-10-09T11:42:30;23.20;61.80
44517;DHT22;30223;17.182;-96.766;2023-10-09T11:45:19;23.10;61.70
44517;DHT22;30223;17.182;-96.766;2023-10-09T11:47:47;23.10;61.70
44517;DHT22;30223;17.182;-96.766;2023-10-09T11:50:42;23.10;61.80
44517;DHT22;30223;17.182;-96.766;2023-10-09T11:53:10;23.10;61.80
44517;DHT22;30223;17.182;-96.766;2023-10-09T11:55:50;23.10;61.80
44517;DHT22;30223;17.182;-96.766;2023-10-09T11:58:19;23.10;61.80
44517;DHT22;30223;17.182;-96.766;2023-10-09T12:00:52;23.10;61.80
44517;DHT22;30223;17.182;-96.766;2023-10-09T12:03:39;23.10;61.80
44517;DHT22;30223;17.182;-96.766;2023-10-09T12:06:05;23.10;61.80
44517;DHT22;30223;17.182;-96.766;2023-10-09T12:08:38;23.10;61.80
44517;DHT22;30223;17.182;-96.766;2023-10-09T12:11:08;23.10;61.80
44517;DHT22;30223;17.182;-96.766;2023-10-09T12:13:37;23.10;61.70
44517;DHT22;30223;17.182;-96.766;2023-10-09T12:16:09;23.10;61.70
44517;DHT22;30223;17.182;-96.766;2023-10-09T12:18:36;23.10;61.70
44517;DHT22;30223;17.182;-96.766;2023-10-09T12:21:05;23.00;61.70
44517;DHT22;30223;17.182;-96.766;2023-10-09T12:23:32;23.10;61.80
44517;DHT22;30223;17.182;-96.766;2023-10-09T12:26:03;23.10;61.80
44517;DHT22;30223;17.182;-96.766;2023-10-09T12:28:30;23.00;61.70
44517;DHT22;30223;17.182;-96.766;2023-10-09T12:30:59;23.00;61.70
44517;DHT22;30223;17.182;-96.766;2023-10-09T12:33:29;23.00;61.80
44517;DHT22;30223;17.182;-96.766;2023-10-09T12:35:56;23.00;61.80
44517;DHT22;30223;17.182;-96.766;2023-10-09T12:38:29;23.00;61.80
44517;DHT22;30223;17.182;-96.766;2023-10-09T12:41:05;23.00;61.80
44517;DHT22;30223;17.182;-96.766;2023-10-09T12:43:46;23.00;61.80
44517;DHT22;30223;17.182;-96.766;2023-10-09T12:46:13;23.00;61.80
44517;DHT22;30223;17.182;-96.766;2023-10-09T12:48:45;23.00;61.80
44517;DHT22;30223;17.182;-96.766;2023-10-09T12:51:13;23.00;61.80
44517;DHT22;30223;17.182;-96.766;2023-10-09T12:53:46;23.00;61.80
44517;DHT22;30223;17.182;-96.766;2023-10-09T12:56:16;23.00;61.80
44517;DHT22;30223;17.182;-96.766;2023-10-09T12:58:44;23.00;61.80
44517;DHT22;30223;17.182;-96.766;2023-10-09T13:01:18;22.90;61.80
44517;DHT22;30223;17.182;-96.766;2023-10-09T13:03:46;23.00;61.80
44517;DHT22;30223;17.182;-96.766;2023-10-09T13:06:16;23.00;61.80
44517;DHT22;30223;17.182;-96.766;2023-10-09T13:08:50;22.90;61.80
44517;DHT22;30223;17.182;-96.766;2023-10-09T13:11:17;22.90;61.80
44517;DHT22;30223;17.182;-96.766;2023-10-09T13:13:45;22.90;61.80
44517;DHT22;30223;17.182;-96.766;2023-10-09T13:16:18;22.90;61.80
44517;DHT22;30223;17.182;-96.766;2023-10-09T13:18:56;22.90;61.80
44517;DHT22;30223;17.182;-96.766;2023-10-09T13:21:28;22.90;61.80
44517;DHT22;30223;17.182;-96.766;2023-10-09T13:23:58;22.90;61.80
44517;DHT22;30223;17.182;-96.766;2023-10-09T13:26:26;22.90;61.80
44517;DHT22;30223;17.182;-96.766;2023-10-09T13:29:03;22.90;61.80
44517;DHT22;30223;17.182;-96.766;2023-10-09T13:31:30;22.90;61.90
44517;DHT22;30223;17.182;-96.766;2023-10-09T13:34:00;22.90;61.80
44517;DHT22;30223;17.182;-96.766;2023-10-09T13:36:27;22.90;61.80
44517;DHT22;30223;17.182;-96.766;2023-10-09T13:38:56;22.90;62.40
44517;DHT22;30223;17.182;-96.766;2023-10-09T13:41:23;22.90;61.90
44517;DHT22;30223;17.182;-96.766;2023-10-09T13:43:55;22.90;61.90
44517;DHT22;30223;17.182;-96.766;2023-10-09T13:46:23;22.90;61.90
44517;DHT22;30223;17.182;-96.766;2023-10-09T13:48:50;22.90;61.90
44517;DHT22;30223;17.182;-96.766;2023-10-09T13:51:19;22.80;61.80
44517;DHT22;30223;17.182;-96.766;2023-10-09T13:53:50;22.80;61.90
44517;DHT22;30223;17.182;-96.766;2023-10-09T13:56:18;22.80;61.90
44517;DHT22;30223;17.182;-96.766;2023-10-09T13:58:49;22.80;61.90
44517;DHT22;30223;17.182;-96.766;2023-10-09T14:01:17;22.80;61.90
44517;DHT22;30223;17.182;-96.766;2023-10-09T14:03:55;22.90;62.00
44517;DHT22;30223;17.182;-96.766;2023-10-09T14:06:22;22.80;62.50
44517;DHT22;30223;17.182;-96.766;2023-10-09T14:08:58;22.90;61.90
44517;DHT22;30223;17.182;-96.766;2023-10-09T14:11:25;22.80;61.90
44517;DHT22;30223;17.182;-96.766;2023-10-09T14:13:54;22.80;61.90
44517;DHT22;30223;17.182;-96.766;2023-10-09T14:16:20;22.90;61.90
44517;DHT22;30223;17.182;-96.766;2023-10-09T14:18:56;22.90;61.90
44517;DHT22;30223;17.182;-96.766;2023-10-09T14:21:26;22.90;62.00
44517;DHT22;30223;17.182;-96.766;2023-10-09T14:23:54;22.80;61.80
44517;DHT22;30223;17.182;-96.766;2023-10-09T14:26:27;22.80;61.80
44517;DHT22;30223;17.182;-96.766;2023-10-09T14:28:56;22.80;61.70
44517;DHT22;30223;17.182;-96.766;2023-10-09T14:31:26;22.90;61.80
44517;DHT22;30223;17.182;-96.766;2023-10-09T14:33:55;22.90;61.80
44517;DHT22;30223;17.182;-96.766;2023-10-09T14:36:22;22.90;61.80
44517;DHT22;30223;17.182;-96.766;2023-10-09T14:38:50;22.90;61.80
44517;DHT22;30223;17.182;-96.766;2023-10-09T14:41:21;22.90;61.90
44517;DHT22;30223;17.182;-96.766;2023-10-09T14:43:52;22.90;61.70
44517;DHT22;30223;17.182;-96.766;2023-10-09T14:46:19;22.80;61.70
44517;DHT22;30223;17.182;-96.766;2023-10-09T14:48:56;22.80;61.70
44517;DHT22;30223;17.182;-96.766;2023-10-09T14:51:24;22.90;61.80
44517;DHT22;30223;17.182;-96.766;2023-10-09T14:53:57;22.90;61.80
44517;DHT22;30223;17.182;-96.766;2023-10-09T14:56:26;22.90;61.80
44517;DHT22;30223;17.182;-96.766;2023-10-09T14:58:57;22.90;61.70
44517;DHT22;30223;17.182;-96.766;2023-10-09T15:01:27;22.90;61.80
44517;DHT22;30223;17.182;-96.766;2023-10-09T15:03:58;22.90;61.70
44517;DHT22;30223;17.182;-96.766;2023-10-09T15:06:30;22.90;61.80
44517;DHT22;30223;17.182;-96.766;2023-10-09T15:08:57;22.90;61.70
44517;DHT22;30223;17.182;-96.766;2023-10-09T15:11:26;22.90;61.70
44517;DHT22;30223;17.182;-96.766;2023-10-09T15:13:57;22.90;61.70
44517;DHT22;30223;17.182;-96.766;2023-10-09T15:16:26;22.90;61.70
44517;DHT22;30223;17.182;-96.766;2023-10-09T15:18:55;22.90;61.70
44517;DHT22;30223;17.182;-96.766;2023-10-09T15:21:24;22.90;61.70
44517;DHT22;30223;17.182;-96.766;2023-10-09T15:23:57;22.90;61.70
44517;DHT22;30223;17.182;-96.766;2023-10-09T15:26:23;22.90;61.70
44517;DHT22;30223;17.182;-96.766;2023-10-09T15:28:51;22.90;61.70
44517;DHT22;30223;17.182;-96.766;2023-10-09T15:31:18;22.90;61.70
44517;DHT22;30223;17.182;-96.766;2023-10-09T15:33:47;22.90;61.70
44517;DHT22;30223;17.182;-96.766;2023-10-09T15:36:17;22.90;61.60
44517;DHT22;30223;17.182;-96.766;2023-10-09T15:38:48;23.00;61.70
44517;DHT22;30223;17.182;-96.766;2023-10-09T15:41:16;23.00;61.70
44517;DHT22;30223;17.182;-96.766;2023-10-09T15:43:44;23.00;61.70
44517;DHT22;30223;17.182;-96.766;2023-10-09T15:46:14;23.00;61.60
44517;DHT22;30223;17.182;-96.766;2023-10-09T15:48:42;23.00;61.70
44517;DHT22;30223;17.182;-96.766;2023-10-09T15:51:12;23.00;61.60
44517;DHT22;30223;17.182;-96.766;2023-10-09T15:53:43;23.10;61.60
44517;DHT22;30223;17.182;-96.766;2023-10-09T15:56:11;23.10;61.60
44517;DHT22;30223;17.182;-96.766;2023-10-09T15:58:41;23.10;61.60
44517;DHT22;30223;17.182;-96.766;2023-10-09T16:01:13;23.10;61.60
44517;DHT22;30223;17.182;-96.766;2023-10-09T16:03:44;23.10;62.20
44517;DHT22;30223;17.182;-96.766;2023-10-09T16:06:14;23.10;61.60
44517;DHT22;30223;17.182;-96.766;2023-10-09T16:08:46;23.10;61.60
44517;DHT22;30223;17.182;-96.766;2023-10-09T16:11:20;23.10;61.60
44517;DHT22;30223;17.182;-96.766;2023-10-09T16:13:50;23.20;61.60
44517;DHT22;30223;17.182;-96.766;2023-10-09T16:16:29;23.20;62.20